createdAt,value
2019-05-20T00:01:23.720Z,3.30
2019-05-20T00:03:53.369Z,3.30
2019-05-20T00:06:23.071Z,3.60
2019-05-20T00:08:52.723Z,3.20
2019-05-20T00:11:22.412Z,3.00
2019-05-20T00:13:52.069Z,4.53
2019-05-20T00:16:21.729Z,3.53
2019-05-20T00:18:51.536Z,3.63
2019-05-20T00:21:21.195Z,3.80
2019-05-20T00:23:50.871Z,3.90
2019-05-20T00:26:20.528Z,3.27
2019-05-20T00:28:50.289Z,3.63
2019-05-20T00:31:25.237Z,4.33
2019-05-20T00:33:54.882Z,3.70
2019-05-20T00:36:26.586Z,4.00
2019-05-20T00:39:13.984Z,3.80
2019-05-20T00:41:44.192Z,2.83
2019-05-20T00:44:13.851Z,3.60
2019-05-20T00:46:43.510Z,3.47
2019-05-20T00:49:13.224Z,3.30
2019-05-20T00:51:43.621Z,3.60
2019-05-20T00:54:13.193Z,3.63
2019-05-20T00:56:42.833Z,3.37
2019-05-20T00:59:12.397Z,3.57
2019-05-20T01:01:41.955Z,3.97
2019-05-20T01:04:11.458Z,3.50
2019-05-20T01:06:40.954Z,3.57
2019-05-20T01:09:10.645Z,3.23
2019-05-20T01:11:40.488Z,3.50
2019-05-20T01:14:10.053Z,3.20
2019-05-20T01:16:39.851Z,3.10
2019-05-20T01:19:09.413Z,3.13
2019-05-20T01:21:38.822Z,3.30
2019-05-20T01:24:08.346Z,3.47
2019-05-20T01:26:37.762Z,3.60
2019-05-20T01:29:07.382Z,3.77
2019-05-20T01:31:38.281Z,2.67
2019-05-20T01:34:08.049Z,3.23
2019-05-20T01:36:37.551Z,3.70
2019-05-20T01:39:07.536Z,3.10
2019-05-20T01:41:37.159Z,2.83
2019-05-20T01:44:06.794Z,2.97
2019-05-20T01:46:36.291Z,2.83
2019-05-20T01:49:05.877Z,3.30
2019-05-20T01:51:35.293Z,2.60
2019-05-20T01:54:04.857Z,2.20
2019-05-20T01:56:34.467Z,2.70
2019-05-20T01:59:03.993Z,2.30
2019-05-20T02:01:33.401Z,2.13
2019-05-20T02:04:03.957Z,2.27
2019-05-20T02:06:33.375Z,2.43
2019-05-20T02:09:03.003Z,2.93
2019-05-20T02:11:32.786Z,2.80
2019-05-20T02:14:03.995Z,2.10
2019-05-20T02:16:33.475Z,2.60
2019-05-20T02:19:03.053Z,2.23
2019-05-20T02:21:32.606Z,2.33
2019-05-20T02:24:02.164Z,3.30
2019-05-20T02:26:31.656Z,3.07
2019-05-20T02:29:01.072Z,3.60
2019-05-20T02:31:30.570Z,3.43
2019-05-20T02:34:00.172Z,3.13
2019-05-20T02:36:29.665Z,3.60
2019-05-20T02:38:59.221Z,3.67
2019-05-20T02:41:28.710Z,3.70
2019-05-20T02:43:58.207Z,3.70
2019-05-20T02:46:27.758Z,4.20
2019-05-20T02:48:57.314Z,3.70
2019-05-20T02:51:32.834Z,4.47
2019-05-20T02:54:03.226Z,4.73
2019-05-20T02:56:32.804Z,3.17
2019-05-20T02:59:02.586Z,4.10
2019-05-20T03:01:32.160Z,4.03
2019-05-20T03:04:11.568Z,4.53
2019-05-20T03:06:33.313Z,4.00
2019-05-20T03:09:03.075Z,5.20
2019-05-20T03:11:32.632Z,4.43
2019-05-20T03:14:03.299Z,4.63
2019-05-20T03:16:32.843Z,4.40
2019-05-20T03:19:02.582Z,3.63
2019-05-20T03:21:32.268Z,4.30
2019-05-20T03:24:01.693Z,4.07
2019-05-20T03:26:31.187Z,4.00
2019-05-20T03:29:00.706Z,3.90
2019-05-20T03:31:30.317Z,3.87
2019-05-20T03:33:59.899Z,3.60
2019-05-20T03:36:29.429Z,3.93
2019-05-20T03:38:58.919Z,4.10
2019-05-20T03:41:28.333Z,4.00
2019-05-20T03:43:57.950Z,4.00
2019-05-20T03:46:27.506Z,3.47
2019-05-20T03:48:57.057Z,4.60
2019-05-20T03:51:26.672Z,3.57
2019-05-20T03:53:56.229Z,4.20
2019-05-20T03:56:25.712Z,3.60
2019-05-20T03:58:55.318Z,4.10
2019-05-20T04:01:24.765Z,4.90
2019-05-20T04:03:56.040Z,4.10
2019-05-20T04:06:25.699Z,3.60
2019-05-20T04:09:07.189Z,3.87
2019-05-20T04:11:49.865Z,3.80
2019-05-20T04:14:22.286Z,3.67
2019-05-20T04:16:56.389Z,3.70
2019-05-20T04:22:38.243Z,4.77
2019-05-20T04:25:08.105Z,4.90
2019-05-20T04:27:37.876Z,4.60
2019-05-20T04:30:11.525Z,4.37
2019-05-20T04:32:41.141Z,4.70
2019-05-20T04:35:22.063Z,5.03
2019-05-20T04:38:07.372Z,5.43
2019-05-20T04:40:37.092Z,5.93
2019-05-20T04:43:06.765Z,7.10
2019-05-20T04:45:36.463Z,13.67
2019-05-20T04:48:30.295Z,7.57
2019-05-20T04:50:58.867Z,7.23
2019-05-20T04:53:28.482Z,8.10
2019-05-20T04:55:58.100Z,8.43
2019-05-20T04:58:36.579Z,6.87
2019-05-20T05:01:35.523Z,4.30
2019-05-20T05:03:45.561Z,4.00
2019-05-20T05:06:16.927Z,4.60
2019-05-20T05:08:54.182Z,4.27
2019-05-20T05:11:26.815Z,4.07
2019-05-20T05:13:57.679Z,3.47
2019-05-20T05:16:28.227Z,4.13
2019-05-20T05:18:57.929Z,3.87
2019-05-20T05:21:27.486Z,3.40
2019-05-20T05:23:59.540Z,3.93
2019-05-20T05:26:29.763Z,2.97
2019-05-20T05:29:19.895Z,3.23
2019-05-20T05:31:37.096Z,2.90
2019-05-20T05:34:08.266Z,3.13
2019-05-20T05:36:38.876Z,3.47
2019-05-20T05:39:08.576Z,3.40
2019-05-20T05:41:38.206Z,3.10
2019-05-20T05:44:08.019Z,3.00
2019-05-20T05:46:37.639Z,2.70
2019-05-20T05:49:07.402Z,2.40
2019-05-20T05:51:36.982Z,2.93
2019-05-20T05:54:07.607Z,2.87
2019-05-20T05:56:37.203Z,3.53
2019-05-20T05:59:11.921Z,6.07
2019-05-20T06:01:41.525Z,3.00
2019-05-20T06:04:11.226Z,2.70
2019-05-20T06:06:40.857Z,3.20
2019-05-20T06:09:10.641Z,2.80
2019-05-20T06:11:50.234Z,3.63
2019-05-20T06:14:19.890Z,3.53
2019-05-20T06:16:55.191Z,4.60
2019-05-20T06:19:27.805Z,4.67
2019-05-20T06:22:10.241Z,4.73
2019-05-20T06:24:39.783Z,4.00
2019-05-20T06:27:09.482Z,4.83
2019-05-20T06:29:39.175Z,4.07
2019-05-20T06:32:08.800Z,4.20
2019-05-20T06:34:38.428Z,4.60
2019-05-20T06:37:12.929Z,3.57
2019-05-20T06:39:51.332Z,3.30
2019-05-20T06:42:21.205Z,3.33
2019-05-20T06:44:55.023Z,3.20
2019-05-20T06:47:23.460Z,3.73
2019-05-20T06:49:54.103Z,4.33
2019-05-20T06:52:35.280Z,3.50
2019-05-20T06:54:55.147Z,4.10
2019-05-20T06:57:24.891Z,3.77
2019-05-20T06:59:54.592Z,3.43
2019-05-20T07:02:25.562Z,3.80
2019-05-20T07:04:55.194Z,4.03
2019-05-20T07:07:24.771Z,4.20
2019-05-20T07:09:54.396Z,3.63
2019-05-20T07:12:40.571Z,4.27
2019-05-20T07:15:01.299Z,4.23
2019-05-20T07:17:32.459Z,4.50
2019-05-20T07:20:02.342Z,5.10
2019-05-20T07:23:09.214Z,6.63
2019-05-20T07:25:36.838Z,6.20
2019-05-20T07:28:08.014Z,5.93
2019-05-20T07:30:39.178Z,5.67
2019-05-20T07:33:08.831Z,6.10
2019-05-20T07:35:38.483Z,6.07
2019-05-20T07:38:08.147Z,6.43
2019-05-20T07:40:37.728Z,5.43
2019-05-20T07:43:07.341Z,5.27
2019-05-20T07:45:39.832Z,5.77
2019-05-20T07:48:09.474Z,5.80
2019-05-20T07:50:46.142Z,5.33
2019-05-20T07:53:13.833Z,6.33
2019-05-20T07:56:02.985Z,6.27
2019-05-20T07:58:35.923Z,5.90
2019-05-20T08:01:05.645Z,5.87
2019-05-20T08:03:38.612Z,6.43
2019-05-20T08:06:08.214Z,5.77
2019-05-20T08:08:39.567Z,5.83
2019-05-20T08:11:09.303Z,6.17
2019-05-20T08:13:42.598Z,6.17
2019-05-20T08:16:11.969Z,5.43
2019-05-20T08:18:43.040Z,5.47
2019-05-20T08:21:12.706Z,5.57
2019-05-20T08:23:44.618Z,4.87
2019-05-20T08:26:14.391Z,5.47
2019-05-20T08:28:46.060Z,5.40
2019-05-20T08:31:15.737Z,4.57
2019-05-20T08:33:45.408Z,4.63
2019-05-20T08:36:15.032Z,5.13
2019-05-20T08:38:44.666Z,5.10
2019-05-20T08:41:15.686Z,4.80
2019-05-20T08:43:45.310Z,4.77
2019-05-20T08:46:14.942Z,4.33
2019-05-20T08:48:45.857Z,4.03
2019-05-20T08:51:15.439Z,4.37
2019-05-20T08:53:45.198Z,4.10
2019-05-20T08:56:14.903Z,4.07
2019-05-20T08:58:44.654Z,4.50
2019-05-20T09:01:14.360Z,3.93
2019-05-20T09:03:44.056Z,3.83
2019-05-20T09:06:13.648Z,4.20
2019-05-20T09:08:43.358Z,4.57
2019-05-20T09:11:12.982Z,4.27
2019-05-20T09:13:42.631Z,4.90
2019-05-20T09:16:13.635Z,3.50
2019-05-20T09:18:43.261Z,3.17
2019-05-20T09:21:13.006Z,2.87
2019-05-20T09:23:42.637Z,3.00
2019-05-20T09:26:12.267Z,2.73
2019-05-20T09:28:42.253Z,3.40
2019-05-20T09:31:11.931Z,3.00
2019-05-20T09:33:41.563Z,3.10
2019-05-20T09:36:11.228Z,2.70
2019-05-20T09:38:41.016Z,2.60
2019-05-20T09:41:10.700Z,3.10
2019-05-20T09:43:40.359Z,2.57
2019-05-20T09:46:10.233Z,2.77
2019-05-20T09:48:40.102Z,2.97
2019-05-20T09:51:09.666Z,2.77
2019-05-20T09:53:39.381Z,2.60
2019-05-20T09:56:08.854Z,2.50
2019-05-20T09:58:38.337Z,3.07
2019-05-20T10:01:08.418Z,3.30
2019-05-20T10:03:38.135Z,3.00
2019-05-20T10:06:07.757Z,2.27
2019-05-20T10:08:43.508Z,2.93
2019-05-20T10:11:09.070Z,2.77
2019-05-20T10:13:38.665Z,2.70
2019-05-20T10:16:08.224Z,2.40
2019-05-20T10:18:39.322Z,3.80
2019-05-20T10:21:13.028Z,3.10
2019-05-20T10:23:42.682Z,2.67
2019-05-20T10:26:12.254Z,2.57
2019-05-20T10:28:46.515Z,2.73
2019-05-20T10:31:13.699Z,2.27
2019-05-20T10:33:43.374Z,3.07
2019-05-20T10:36:13.061Z,2.30
2019-05-20T10:38:57.636Z,2.93
2019-05-20T10:41:13.975Z,3.43
2019-05-20T10:43:43.614Z,3.33
2019-05-20T10:46:13.198Z,3.60
2019-05-20T10:48:42.954Z,3.27
2019-05-20T10:51:12.610Z,4.03
2019-05-20T10:53:42.104Z,4.10
2019-05-20T10:56:13.548Z,3.50
2019-05-20T10:58:43.563Z,3.77
2019-05-20T11:01:13.239Z,3.93
2019-05-20T11:03:43.005Z,3.80
2019-05-20T11:06:12.728Z,3.83
2019-05-20T11:09:25.419Z,3.70
2019-05-20T11:15:16.822Z,4.37
2019-05-20T11:17:46.600Z,3.60
2019-05-20T11:20:16.592Z,3.70
2019-05-20T11:25:52.838Z,3.43
2019-05-20T11:28:22.705Z,3.30
2019-05-20T11:31:01.905Z,4.20
2019-05-20T11:33:33.304Z,3.70
2019-05-20T11:36:05.935Z,3.20
2019-05-20T11:38:57.434Z,3.40
2019-05-20T11:41:52.260Z,3.90
2019-05-20T11:44:04.298Z,2.83
2019-05-20T11:46:42.827Z,3.20
2019-05-20T11:49:09.014Z,3.40
2019-05-20T11:51:38.613Z,3.07
2019-05-20T11:54:23.025Z,3.83
2019-05-20T11:58:38.683Z,3.83
2019-05-20T11:59:31.441Z,3.47
2019-05-20T12:02:04.084Z,3.27
2019-05-20T12:04:36.887Z,3.17
2019-05-20T12:07:08.776Z,3.23
2019-05-20T12:16:15.270Z,3.37
2019-05-20T12:18:45.312Z,4.00
2019-05-20T12:21:16.379Z,3.20
2019-05-20T12:23:46.097Z,4.00
2019-05-20T12:26:15.734Z,4.77
2019-05-20T12:28:45.539Z,4.50
2019-05-20T12:31:15.531Z,5.67
2019-05-20T12:33:45.435Z,3.97
2019-05-20T12:36:14.921Z,4.57
2019-05-20T12:38:44.638Z,4.60
2019-05-20T12:41:14.130Z,4.90
2019-05-20T12:43:45.011Z,4.90
2019-05-20T12:46:14.911Z,5.00
2019-05-20T12:48:44.694Z,4.73
2019-05-20T12:51:14.847Z,4.83
2019-05-20T12:53:44.615Z,5.13
2019-05-20T12:56:14.191Z,5.60
2019-05-20T12:58:43.814Z,5.00
2019-05-20T13:01:13.375Z,5.00
2019-05-20T13:03:42.945Z,5.03
2019-05-20T13:06:12.615Z,5.13
2019-05-20T13:08:47.423Z,4.60
2019-05-20T13:11:17.697Z,5.30
2019-05-20T13:13:51.031Z,4.93
2019-05-20T13:16:25.968Z,5.33
2019-05-20T13:18:56.679Z,5.47
2019-05-20T13:21:54.975Z,5.10
2019-05-20T13:24:47.512Z,4.23
2019-05-20T13:27:17.911Z,5.10
2019-05-20T13:29:47.472Z,4.73
2019-05-20T13:32:18.704Z,4.93
2019-05-20T13:34:50.039Z,3.23
2019-05-20T13:37:19.770Z,3.73
2019-05-20T13:40:02.872Z,4.57
2019-05-20T13:42:24.117Z,3.60
2019-05-20T13:44:53.714Z,2.80
2019-05-20T13:47:23.363Z,2.83
2019-05-20T13:50:00.419Z,3.13
2019-05-20T13:52:40.978Z,3.47
2019-05-20T13:55:11.117Z,3.50
2019-05-20T13:57:43.756Z,3.87
2019-05-20T14:00:13.595Z,3.07
2019-05-20T14:02:43.399Z,3.73
2019-05-20T14:07:48.113Z,3.67
2019-05-20T14:10:17.799Z,4.40
2019-05-20T14:12:47.405Z,4.73
2019-05-20T14:15:16.964Z,4.03
2019-05-20T14:17:51.419Z,3.53
2019-05-20T14:20:21.180Z,4.23
2019-05-20T14:22:57.787Z,2.97
2019-05-20T14:25:29.411Z,3.33
2019-05-20T14:27:59.146Z,2.90
2019-05-20T14:30:28.871Z,3.03
2019-05-20T14:33:00.397Z,3.40
2019-05-20T14:35:31.712Z,3.50
2019-05-20T14:38:01.253Z,2.87
2019-05-20T14:40:31.168Z,3.37
2019-05-20T14:43:00.832Z,3.00
2019-05-20T14:45:31.965Z,3.07
2019-05-20T14:48:03.325Z,2.77
2019-05-20T14:50:32.858Z,3.40
2019-05-20T14:53:02.479Z,3.50
2019-05-20T14:55:41.839Z,3.30
2019-05-20T14:58:03.359Z,4.10
2019-05-20T15:00:32.864Z,3.73
2019-05-20T15:03:02.341Z,4.23
2019-05-20T15:05:31.937Z,4.07
2019-05-20T15:08:01.558Z,4.33
2019-05-20T15:10:31.126Z,4.23
2019-05-20T15:13:00.778Z,4.40
2019-05-20T15:15:30.375Z,3.97
2019-05-20T15:18:00.422Z,4.93
2019-05-20T15:20:30.042Z,4.40
2019-05-20T15:22:59.916Z,4.63
2019-05-20T15:25:29.349Z,4.53
2019-05-20T15:28:00.149Z,4.17
2019-05-20T15:30:29.702Z,4.50
2019-05-20T15:32:59.335Z,4.67
2019-05-20T15:35:28.887Z,4.20
2019-05-20T15:37:58.686Z,3.50
2019-05-20T15:40:28.278Z,3.53
2019-05-20T15:42:58.103Z,3.63
2019-05-20T15:45:30.591Z,2.77
2019-05-20T15:48:00.288Z,25.60
2019-05-20T15:50:29.888Z,3.53
2019-05-20T15:52:59.326Z,3.40
2019-05-20T15:55:28.742Z,3.30
2019-05-20T15:57:58.409Z,3.10
2019-05-20T16:00:29.066Z,3.70
2019-05-20T16:02:58.458Z,3.13
2019-05-20T16:05:28.087Z,3.20
2019-05-20T16:07:57.583Z,5.73
2019-05-20T16:10:27.247Z,3.20
2019-05-20T16:12:56.921Z,3.47
2019-05-20T16:15:26.581Z,2.73
2019-05-20T16:17:56.069Z,2.60
2019-05-20T16:20:25.835Z,2.50
2019-05-20T16:22:55.343Z,13.73
2019-05-20T16:25:24.764Z,2.67
2019-05-20T16:27:54.539Z,9.80
2019-05-20T16:30:24.192Z,4.83
2019-05-20T16:32:53.758Z,3.00
2019-05-20T16:35:23.458Z,3.03
2019-05-20T16:37:53.009Z,3.20
2019-05-20T16:40:22.642Z,3.27
2019-05-20T16:42:55.156Z,3.20
2019-05-20T16:45:25.184Z,3.13
2019-05-20T16:47:54.741Z,3.70
2019-05-20T16:50:24.378Z,3.80
2019-05-20T16:52:53.956Z,3.80
2019-05-20T16:55:23.831Z,4.13
2019-05-20T16:57:54.303Z,2.57
2019-05-20T17:00:31.961Z,2.87
2019-05-20T17:02:59.867Z,3.10
2019-05-20T17:05:29.578Z,4.20
2019-05-20T17:07:59.159Z,3.20
2019-05-20T17:10:28.785Z,3.10
2019-05-20T17:12:58.540Z,2.77
2019-05-20T17:15:28.087Z,3.00
2019-05-20T17:17:57.498Z,2.80
2019-05-20T17:20:27.317Z,4.33
2019-05-20T17:22:56.976Z,2.87
2019-05-20T17:25:26.629Z,3.00
2019-05-20T17:27:56.184Z,2.87
2019-05-20T17:30:25.673Z,2.50
2019-05-20T17:32:55.207Z,3.40
2019-05-20T17:35:24.761Z,4.60
2019-05-20T17:37:55.426Z,4.13
2019-05-20T17:40:25.354Z,4.23
2019-05-20T17:42:54.983Z,5.17
2019-05-20T17:45:24.674Z,5.80
2019-05-20T17:47:54.244Z,5.50
2019-05-20T17:50:23.900Z,5.83
2019-05-20T17:52:54.393Z,6.27
2019-05-20T17:55:24.331Z,6.00
2019-05-20T17:57:55.169Z,6.73
2019-05-20T18:00:24.862Z,7.10
2019-05-20T18:02:55.577Z,5.93
2019-05-20T18:05:25.303Z,5.67
2019-05-20T18:07:56.280Z,5.67
2019-05-20T18:10:26.129Z,5.43
2019-05-20T18:12:55.981Z,5.47
2019-05-20T18:15:25.708Z,14.60
2019-05-20T18:17:55.341Z,6.03
2019-05-20T18:20:25.074Z,6.13
2019-05-20T18:22:54.751Z,5.90
2019-05-20T18:25:24.192Z,6.10
2019-05-20T18:27:54.873Z,5.77
2019-05-20T18:30:25.017Z,5.63
2019-05-20T18:32:54.574Z,5.70
2019-05-20T18:35:24.310Z,6.10
2019-05-20T18:37:53.920Z,4.87
2019-05-20T18:40:23.569Z,3.87
2019-05-20T18:42:53.054Z,4.87
2019-05-20T18:45:22.486Z,4.50
2019-05-20T18:47:52.038Z,4.93
2019-05-20T18:50:21.828Z,4.23
2019-05-20T18:52:51.412Z,4.27
2019-05-20T18:55:20.952Z,3.60
2019-05-20T19:35:56.726Z,5.20
2019-05-20T19:38:26.469Z,5.80
2019-05-20T19:40:55.958Z,6.83
2019-05-20T19:43:25.812Z,4.90
2019-05-20T19:45:55.239Z,4.43
2019-05-20T19:48:25.012Z,4.50
2019-05-20T19:50:54.651Z,4.73
2019-05-20T19:53:24.510Z,4.60
2019-05-20T19:55:54.071Z,4.60
2019-05-20T19:58:23.629Z,4.77
2019-05-20T20:00:56.553Z,4.60
2019-05-20T20:03:24.564Z,5.33
2019-05-20T20:05:53.976Z,5.70
2019-05-20T20:08:23.533Z,5.10
2019-05-20T20:10:53.148Z,5.20
2019-05-20T20:13:22.787Z,5.83
2019-05-20T20:15:52.426Z,5.53
2019-05-20T20:18:21.920Z,5.57
2019-05-20T20:20:53.174Z,5.13
2019-05-20T20:23:25.075Z,4.67
2019-05-20T20:25:54.655Z,5.60
2019-05-20T20:28:24.240Z,6.00
2019-05-20T20:30:53.814Z,5.43
2019-05-20T20:33:23.307Z,5.60
2019-05-20T20:35:52.802Z,6.50
2019-05-20T20:38:22.375Z,7.00
2019-05-20T20:40:51.938Z,6.80
2019-05-20T20:43:21.531Z,7.00
2019-05-20T20:45:51.084Z,8.13
2019-05-20T20:48:20.922Z,6.57
2019-05-20T20:50:50.487Z,7.87
2019-05-20T20:53:20.058Z,7.80
2019-05-20T20:55:49.542Z,8.07
2019-05-20T20:58:19.076Z,7.93
2019-05-20T21:00:48.498Z,8.10
2019-05-20T21:03:18.061Z,8.33
2019-05-20T21:05:47.703Z,7.83
2019-05-20T21:08:17.192Z,7.33
2019-05-20T21:10:46.610Z,7.73
2019-05-20T21:13:16.102Z,7.50
2019-05-20T21:15:45.857Z,7.90
2019-05-20T21:18:15.364Z,7.57
2019-05-20T21:20:44.874Z,7.43
2019-05-20T21:23:14.361Z,7.17
2019-05-20T21:25:44.071Z,7.53
2019-05-20T21:28:13.586Z,7.07
2019-05-20T21:30:43.081Z,7.17
2019-05-20T21:33:12.572Z,7.10
2019-05-20T21:35:45.180Z,6.90
2019-05-20T21:38:13.175Z,6.10
2019-05-20T21:40:42.747Z,6.80
2019-05-20T21:43:12.305Z,6.37
2019-05-20T21:45:41.731Z,7.17
2019-05-20T21:48:11.148Z,6.20
2019-05-20T21:50:40.705Z,6.77
2019-05-20T21:53:10.200Z,5.90
2019-05-20T21:55:39.625Z,6.57
2019-05-20T21:58:09.081Z,5.93
2019-05-20T22:00:54.946Z,6.43
2019-05-20T22:03:26.007Z,6.23
2019-05-20T22:05:56.584Z,6.47
2019-05-20T22:08:26.150Z,6.97
2019-05-20T22:10:55.641Z,6.60
2019-05-20T22:13:25.105Z,6.20
2019-05-20T22:15:54.494Z,6.83
2019-05-20T22:18:23.924Z,6.40
2019-05-20T22:20:53.971Z,7.77
2019-05-20T22:23:25.251Z,6.50
2019-05-20T22:25:55.066Z,7.47
2019-05-20T22:28:24.618Z,7.50
2019-05-20T22:30:54.192Z,7.17
2019-05-20T22:33:23.740Z,6.23
2019-05-20T22:35:53.716Z,7.20
2019-05-20T22:38:23.286Z,6.43
2019-05-20T22:40:52.896Z,6.70
2019-05-20T22:43:22.389Z,6.50
2019-05-20T22:45:52.125Z,6.63
2019-05-20T22:48:21.833Z,7.40
2019-05-20T22:50:51.427Z,6.87
2019-05-20T22:53:20.995Z,6.47
2019-05-20T22:55:50.745Z,7.60
2019-05-20T22:58:20.238Z,7.83
2019-05-20T23:00:50.937Z,7.33
2019-05-20T23:03:22.310Z,7.23
2019-05-20T23:05:51.884Z,7.50
2019-05-20T23:08:21.563Z,7.70
2019-05-20T23:10:51.123Z,7.20
2019-05-20T23:13:20.596Z,7.77
2019-05-20T23:15:50.309Z,9.73
2019-05-20T23:18:19.921Z,8.80
2019-05-20T23:20:49.811Z,9.07
2019-05-20T23:23:19.350Z,8.40
2019-05-20T23:25:49.104Z,7.93
2019-05-20T23:28:20.286Z,8.43
2019-05-20T23:30:49.727Z,9.33
2019-05-20T23:33:19.211Z,8.93
2019-05-20T23:35:48.954Z,8.47
2019-05-20T23:38:18.383Z,10.43
2019-05-20T23:40:47.874Z,9.70
2019-05-20T23:43:17.356Z,10.37
2019-05-20T23:45:46.897Z,9.93
2019-05-20T23:48:16.463Z,9.60
2019-05-20T23:50:45.880Z,9.30
2019-05-20T23:53:17.237Z,10.17
2019-05-20T23:55:46.791Z,9.17
2019-05-20T23:58:16.358Z,9.13
